PWSweather.com
Personal Weather Stations
Station Observations
KVAGLENALL
West Henrico, Glen Allen, VA 23060-6503

West HenricoGlen Allen, VA 23060-6503

Lat: 37.6554, Lon: -77.5693

Elevation: 273

Station Type: Davis Vantage Pro II

Latest ConditionsUpdated 5:45:15 AM EST Sunday, Jan 21, 2018
Currently Today's Max Today's Min Today's Average
Temperature 34.5°F1.4°C 38.5°F3.6°C 34.0°F1.1°C 35.6°F2.0°C
Dew Point 32.1°F0.1°C 34.1°F1.2°C 31.5°F-0.3°C 32.5°F0.3°C
Winds 0.1 mph SSW0.2 kmh SSW 4.1 mph SSW6.6 kmh SSW - 1.1 mph 1.8 kmh
Wind Gusts 1.1 mph1.8 kmh 4.1 mph6.6 kmh - -
Humidity 91% 92% 82% 89%
Pressure 30.18 in1022.0 mb 30.18 in1022.0 mb 30.12 in1020.0 mb -
Hour Temp Dew Point Humidity Winds Wind Gusts Pressure Precip Precip Rate Daily Precip Total
05:45 AM 34.5°F1.4°C 32.1°F0.1°C 91% 0.1 mph SSW0.2 kmh SSW 1.1 mph1.8 kmh 30.18 in1022.0 mb 0.00 in0.0 mm 0.00 in0.0 mm 0.00 in0.0 mm
05:30 AM 35.1°F1.7°C 33.0°F0.6°C 92% 2.0 mph S3.2 kmh S 4.1 mph6.6 kmh 30.18 in1022.0 mb 0.00 in0.0 mm 0.00 in0.0 mm 0.00 in0.0 mm
05:15 AM 34.5°F1.4°C 32.4°F0.2°C 92% 2.0 mph SSW3.2 kmh SSW 3.1 mph5.0 kmh 30.17 in1021.7 mb 0.00 in0.0 mm 0.00 in0.0 mm 0.00 in0.0 mm
05:00 AM 34.7°F1.5°C 32.6°F0.3°C 92% 1.0 mph SSW1.6 kmh SSW 3.1 mph5.0 kmh 30.17 in1021.7 mb 0.00 in0.0 mm 0.00 in0.0 mm 0.00 in0.0 mm
04:45 AM 34.0°F1.1°C 31.6°F-0.2°C 91% 2.0 mph SSW3.2 kmh SSW 4.1 mph6.6 kmh 30.17 in1021.7 mb 0.00 in0.0 mm 0.00 in0.0 mm 0.00 in0.0 mm
04:30 AM 34.1°F1.2°C 31.5°F-0.3°C 90% 2.0 mph SW3.2 kmh SW 2.1 mph3.4 kmh 30.16 in1021.3 mb 0.00 in0.0 mm 0.00 in0.0 mm 0.00 in0.0 mm
04:15 AM 35.3°F1.8°C 32.9°F0.5°C 91% 2.0 mph SW3.2 kmh SW 2.1 mph3.4 kmh 30.17 in1021.7 mb 0.00 in0.0 mm 0.00 in0.0 mm 0.00 in0.0 mm
04:00 AM 34.5°F1.4°C 32.1°F0.1°C 91% 4.1 mph SSW6.6 kmh SSW 4.1 mph6.6 kmh 30.16 in1021.3 mb 0.00 in0.0 mm 0.00 in0.0 mm 0.00 in0.0 mm
03:45 AM 34.3°F1.3°C 31.7°F-0.2°C 90% 2.0 mph WSW3.2 kmh WSW 2.1 mph3.4 kmh 30.16 in1021.3 mb 0.00 in0.0 mm 0.00 in0.0 mm 0.00 in0.0 mm
03:30 AM 34.2°F1.2°C 31.6°F-0.2°C 90% 1.0 mph WSW1.6 kmh WSW 1.1 mph1.8 kmh 30.16 in1021.3 mb 0.00 in0.0 mm 0.00 in0.0 mm 0.00 in0.0 mm
03:15 AM 34.3°F1.3°C 31.7°F-0.2°C 90% 0.1 mph WSW0.2 kmh WSW 0.1 mph0.2 kmh 30.16 in1021.3 mb 0.00 in0.0 mm 0.00 in0.0 mm 0.00 in0.0 mm
03:00 AM 34.7°F1.5°C 32.1°F0.1°C 90% 0.1 mph WSW0.2 kmh WSW 1.1 mph1.8 kmh 30.16 in1021.3 mb 0.00 in0.0 mm 0.00 in0.0 mm 0.00 in0.0 mm
02:45 AM 35.1°F1.7°C 32.2°F0.1°C 89% 0.1 mph WSW0.2 kmh WSW 0.1 mph0.2 kmh 30.15 in1021.0 mb 0.00 in0.0 mm 0.00 in0.0 mm 0.00 in0.0 mm
02:30 AM 35.3°F1.8°C 32.4°F0.2°C 89% 0.1 mph WSW0.2 kmh WSW 0.1 mph0.2 kmh 30.15 in1021.0 mb 0.00 in0.0 mm 0.00 in0.0 mm 0.00 in0.0 mm
02:15 AM 35.6°F2.0°C 32.7°F0.4°C 89% 0.1 mph WSW0.2 kmh WSW 0.1 mph0.2 kmh 30.14 in1020.7 mb 0.00 in0.0 mm 0.00 in0.0 mm 0.00 in0.0 mm
02:00 AM 35.8°F2.1°C 32.6°F0.3°C 88% 2.0 mph SSW3.2 kmh SSW 2.1 mph3.4 kmh 30.14 in1020.7 mb 0.00 in0.0 mm 0.00 in0.0 mm 0.00 in0.0 mm
01:45 AM 35.9°F2.2°C 32.4°F0.2°C 87% 2.0 mph WSW3.2 kmh WSW 2.1 mph3.4 kmh 30.14 in1020.7 mb 0.00 in0.0 mm 0.00 in0.0 mm 0.00 in0.0 mm
01:30 AM 36.4°F2.4°C 32.9°F0.5°C 87% 0.1 mph WSW0.2 kmh WSW 0.1 mph0.2 kmh 30.13 in1020.3 mb 0.00 in0.0 mm 0.00 in0.0 mm 0.00 in0.0 mm
01:15 AM 36.4°F2.4°C 32.9°F0.5°C 87% 0.1 mph WSW0.2 kmh WSW 0.1 mph0.2 kmh 30.13 in1020.3 mb 0.00 in0.0 mm 0.00 in0.0 mm 0.00 in0.0 mm
01:00 AM 36.9°F2.7°C 32.8°F0.4°C 85% 1.0 mph WSW1.6 kmh WSW 1.1 mph1.8 kmh 30.13 in1020.3 mb 0.00 in0.0 mm 0.00 in0.0 mm 0.00 in0.0 mm
12:45 AM 37.8°F3.2°C 33.7°F0.9°C 85% 0.1 mph W0.2 kmh W 1.1 mph1.8 kmh 30.13 in1020.3 mb 0.00 in0.0 mm 0.00 in0.0 mm 0.00 in0.0 mm
12:30 AM 38.2°F3.4°C 34.1°F1.2°C 85% 0.1 mph SW0.2 kmh SW 0.1 mph0.2 kmh 30.12 in1020.0 mb 0.00 in0.0 mm 0.00 in0.0 mm 0.00 in0.0 mm
12:15 AM 38.4°F3.6°C 34.0°F1.1°C 84% 1.0 mph SW1.6 kmh SW 2.1 mph3.4 kmh 30.12 in1020.0 mb 0.00 in0.0 mm 0.00 in0.0 mm 0.00 in0.0 mm
12:00 AM 38.5°F3.6°C 33.5°F0.8°C 82% 2.0 mph SW3.2 kmh SW 3.1 mph5.0 kmh 30.12 in1020.0 mb 0.00 in0.0 mm 0.00 in0.0 mm 0.00 in0.0 mm